Time,TemperatureF,DewpointF,PressureIn,WindDirection,WindDirectionDegrees,WindSpeedMPH,WindSpeedGustMPH,Humidity,HourlyPrecipIn,Conditions,Clouds,dailyrainin,SoftwareType,DateUTC
2013-07-19 00:01:00,54.1,52.7,29.85,North,356,2.0,5.0,95,0.00,,,0.30,meteohub,2013-07-19 06:01:00,
2013-07-19 00:07:00,54.1,52.5,29.85,North,356,0.0,3.0,94,0.01,,,0.00,meteohub,2013-07-19 06:07:00,
2013-07-19 00:13:00,54.0,52.3,29.85,North,356,1.0,3.0,94,0.01,,,0.00,meteohub,2013-07-19 06:13:00,
2013-07-19 00:19:00,54.1,52.7,29.84,North,356,1.0,3.0,95,0.01,,,0.00,meteohub,2013-07-19 06:19:00,
2013-07-19 00:25:00,54.0,52.3,29.84,North,356,4.0,4.0,94,0.01,,,0.00,meteohub,2013-07-19 06:25:00,
2013-07-19 00:31:00,53.8,52.2,29.84,North,356,3.0,4.0,94,0.01,,,0.00,meteohub,2013-07-19 06:31:00,
2013-07-19 00:37:00,53.8,52.2,29.84,North,356,5.0,7.0,94,0.01,,,0.00,meteohub,2013-07-19 06:37:00,
2013-07-19 00:43:00,53.4,51.8,29.84,North,356,4.0,7.0,94,0.01,,,0.00,meteohub,2013-07-19 06:43:00,
2013-07-19 00:49:00,53.2,51.3,29.83,North,356,4.0,7.0,93,0.01,,,0.00,meteohub,2013-07-19 06:49:00,
2013-07-19 00:55:00,53.1,51.1,29.84,North,356,0.0,7.0,93,0.01,,,0.00,meteohub,2013-07-19 06:55:00,
2013-07-19 01:01:00,53.1,51.1,29.83,North,356,0.0,7.0,93,0.00,,,0.00,meteohub,2013-07-19 07:01:00,
2013-07-19 01:07:00,53.1,51.4,29.84,North,356,2.0,4.0,94,0.00,,,0.00,meteohub,2013-07-19 07:07:00,
2013-07-19 01:13:00,53.1,51.4,29.84,North,356,1.0,4.0,94,0.00,,,0.00,meteohub,2013-07-19 07:13:00,
2013-07-19 01:19:00,53.1,51.6,29.84,North,356,0.0,4.0,95,0.00,,,0.00,meteohub,2013-07-19 07:19:00,
2013-07-19 01:26:00,53.1,51.6,29.84,North,356,0.0,3.0,95,0.00,,,0.00,meteohub,2013-07-19 07:26:00,
2013-07-19 01:32:00,53.1,51.4,29.84,North,356,0.0,3.0,94,0.00,,,0.00,meteohub,2013-07-19 07:32:00,
2013-07-19 01:38:00,53.1,51.6,29.84,North,356,2.0,2.0,95,0.00,,,0.00,meteohub,2013-07-19 07:38:00,
2013-07-19 01:44:00,53.1,51.6,29.84,North,356,3.0,3.0,95,0.00,,,0.00,meteohub,2013-07-19 07:44:00,
2013-07-19 01:50:00,53.1,51.6,29.84,North,356,2.0,3.0,95,0.00,,,0.00,meteohub,2013-07-19 07:50:00,
2013-07-19 01:56:00,53.1,51.6,29.84,North,356,0.0,4.0,95,0.00,,,0.00,meteohub,2013-07-19 07:56:00,
2013-07-19 02:02:00,53.1,51.6,29.84,North,356,2.0,4.0,95,0.00,,,0.00,meteohub,2013-07-19 08:02:00,
2013-07-19 02:08:00,53.1,51.4,29.84,North,356,2.0,4.0,94,0.00,,,0.00,meteohub,2013-07-19 08:08:00,
2013-07-19 02:14:00,53.1,51.4,29.84,North,356,3.0,6.0,94,0.00,,,0.00,meteohub,2013-07-19 08:14:00,
2013-07-19 02:20:00,53.1,51.4,29.84,North,350,5.0,6.0,94,0.00,,,0.00,meteohub,2013-07-19 08:20:00,
2013-07-19 02:26:00,53.1,51.4,29.84,North,349,2.0,6.0,94,0.00,,,0.00,meteohub,2013-07-19 08:26:00,
2013-07-19 02:32:00,53.1,51.4,29.84,North,349,3.0,6.0,94,0.00,,,0.00,meteohub,2013-07-19 08:32:00,
2013-07-19 02:38:00,53.1,51.1,29.84,North,349,2.0,6.0,93,0.00,,,0.00,meteohub,2013-07-19 08:38:00,
2013-07-19 02:44:00,53.1,51.1,29.84,North,349,2.0,6.0,93,0.00,,,0.00,meteohub,2013-07-19 08:44:00,
2013-07-19 02:50:00,53.1,51.1,29.84,North,349,1.0,5.0,93,0.00,,,0.00,meteohub,2013-07-19 08:50:00,
2013-07-19 02:56:00,53.1,51.1,29.84,North,349,2.0,4.0,93,0.00,,,0.00,meteohub,2013-07-19 08:56:00,
2013-07-19 03:02:00,52.9,50.9,29.84,North,349,3.0,4.0,93,0.00,,,0.00,meteohub,2013-07-19 09:02:00,
2013-07-19 03:08:00,53.1,51.1,29.84,North,349,1.0,4.0,93,0.00,,,0.00,meteohub,2013-07-19 09:08:00,
2013-07-19 03:14:00,53.1,51.1,29.84,North,349,4.0,4.0,93,0.00,,,0.00,meteohub,2013-07-19 09:14:00,
2013-07-19 03:20:00,53.1,50.7,29.84,North,349,1.0,4.0,92,0.00,,,0.00,meteohub,2013-07-19 09:20:00,
2013-07-19 03:26:00,53.1,50.7,29.84,North,349,3.0,4.0,92,0.00,,,0.00,meteohub,2013-07-19 09:26:00,
2013-07-19 03:32:00,52.9,49.6,29.84,North,349,3.0,6.0,89,0.00,,,0.00,meteohub,2013-07-19 09:32:00,
2013-07-19 03:38:00,53.2,50.0,29.84,North,349,2.0,6.0,89,0.00,,,0.00,meteohub,2013-07-19 09:38:00,
2013-07-19 03:44:00,53.2,50.0,29.83,North,349,3.0,6.0,89,0.00,,,0.00,meteohub,2013-07-19 09:44:00,
2013-07-19 03:50:00,53.2,50.0,29.83,North,349,1.0,5.0,89,0.00,,,0.00,meteohub,2013-07-19 09:50:00,
2013-07-19 03:56:00,53.1,49.8,29.83,North,349,3.0,5.0,89,0.00,,,0.00,meteohub,2013-07-19 09:56:00,
2013-07-19 04:02:00,53.1,49.6,29.83,North,349,1.0,6.0,88,0.00,,,0.00,meteohub,2013-07-19 10:02:00,
2013-07-19 04:08:00,53.2,49.5,29.83,North,349,1.0,6.0,87,0.00,,,0.00,meteohub,2013-07-19 10:08:00,
2013-07-19 04:14:00,53.2,49.5,29.83,North,349,0.0,6.0,87,0.00,,,0.00,meteohub,2013-07-19 10:14:00,
2013-07-19 04:20:00,53.2,50.0,29.83,North,349,0.0,4.0,89,0.00,,,0.00,meteohub,2013-07-19 10:20:00,
2013-07-19 04:26:00,52.9,49.6,29.83,North,349,1.0,1.0,89,0.00,,,0.00,meteohub,2013-07-19 10:26:00,
2013-07-19 04:32:00,52.5,49.5,29.83,North,349,0.0,4.0,89,0.00,,,0.00,meteohub,2013-07-19 10:32:00,
2013-07-19 04:38:00,52.3,49.5,29.83,North,349,3.0,4.0,90,0.00,,,0.00,meteohub,2013-07-19 10:38:00,
2013-07-19 04:44:00,52.3,49.5,29.83,North,349,2.0,4.0,90,0.00,,,0.00,meteohub,2013-07-19 10:44:00,
2013-07-19 04:51:00,52.3,49.5,29.84,North,349,2.0,4.0,90,0.00,,,0.00,meteohub,2013-07-19 10:51:00,
2013-07-19 04:57:00,52.3,49.5,29.84,North,349,2.0,5.0,90,0.00,,,0.00,meteohub,2013-07-19 10:57:00,
2013-07-19 05:03:00,52.5,49.6,29.84,North,349,2.0,5.0,90,0.00,,,0.00,meteohub,2013-07-19 11:03:00,
2013-07-19 05:09:00,52.9,50.0,29.84,North,349,3.0,5.0,90,0.00,,,0.00,meteohub,2013-07-19 11:09:00,
2013-07-19 05:15:00,53.1,49.8,29.84,North,349,2.0,5.0,89,0.00,,,0.00,meteohub,2013-07-19 11:15:00,
2013-07-19 05:21:00,53.2,50.0,29.84,North,349,3.0,4.0,89,0.00,,,0.00,meteohub,2013-07-19 11:21:00,
2013-07-19 05:27:00,53.2,50.0,29.84,North,349,2.0,4.0,89,0.00,,,0.00,meteohub,2013-07-19 11:27:00,
2013-07-19 05:33:00,53.1,49.8,29.85,North,349,0.0,4.0,89,0.00,,,0.00,meteohub,2013-07-19 11:33:00,
2013-07-19 05:39:00,52.7,49.5,29.85,North,349,1.0,4.0,89,0.00,,,0.00,meteohub,2013-07-19 11:39:00,
2013-07-19 05:45:00,52.3,49.3,29.85,North,349,1.0,3.0,89,0.00,,,0.00,meteohub,2013-07-19 11:45:00,
2013-07-19 05:51:00,52.2,49.1,29.85,North,349,0.0,3.0,89,0.00,,,0.00,meteohub,2013-07-19 11:51:00,
2013-07-19 05:57:00,52.2,49.1,29.85,North,349,2.0,3.0,89,0.00,,,0.00,meteohub,2013-07-19 11:57:00,
2013-07-19 06:03:00,51.8,48.9,29.85,North,349,1.0,4.0,90,0.00,,,0.00,meteohub,2013-07-19 12:03:00,
2013-07-19 06:09:00,51.6,48.7,29.85,North,349,0.0,4.0,90,0.00,,,0.00,meteohub,2013-07-19 12:09:00,
2013-07-19 06:15:00,51.6,48.7,29.86,North,349,0.0,4.0,90,0.00,,,0.00,meteohub,2013-07-19 12:15:00,
2013-07-19 06:21:00,51.6,49.1,29.86,North,349,0.0,0.0,91,0.00,,,0.00,meteohub,2013-07-19 12:21:00,
2013-07-19 06:27:00,51.6,49.1,29.86,North,349,0.0,0.0,91,0.00,,,0.00,meteohub,2013-07-19 12:27:00,
2013-07-19 06:33:00,51.8,49.6,29.86,North,349,0.0,0.0,92,0.00,,,0.00,meteohub,2013-07-19 12:33:00,
2013-07-19 06:39:00,52.0,49.6,29.86,North,349,0.0,1.0,92,0.00,,,0.00,meteohub,2013-07-19 12:39:00,
2013-07-19 06:45:00,52.0,49.5,29.86,North,349,0.0,1.0,91,0.00,,,0.00,meteohub,2013-07-19 12:45:00,
2013-07-19 06:51:00,52.3,50.0,29.86,North,349,0.0,1.0,92,0.00,,,0.00,meteohub,2013-07-19 12:51:00,
2013-07-19 06:57:00,52.5,50.2,29.86,North,349,0.0,1.0,92,0.00,,,0.00,meteohub,2013-07-19 12:57:00,
2013-07-19 07:03:00,52.9,50.5,29.87,North,349,0.0,0.0,92,0.00,,,0.00,meteohub,2013-07-19 13:03:00,
2013-07-19 07:09:00,53.1,50.7,29.87,North,349,0.0,0.0,92,0.00,,,0.00,meteohub,2013-07-19 13:09:00,
2013-07-19 07:15:00,53.1,50.7,29.87,North,349,0.0,0.0,92,0.00,,,0.00,meteohub,2013-07-19 13:15:00,
2013-07-19 07:21:00,53.2,50.9,29.86,North,349,0.0,0.0,92,0.00,,,0.00,meteohub,2013-07-19 13:21:00,
2013-07-19 07:27:00,53.4,51.1,29.87,North,349,0.0,0.0,92,0.00,,,0.00,meteohub,2013-07-19 13:27:00,
2013-07-19 07:33:00,53.8,51.3,29.87,North,349,0.0,0.0,91,0.00,,,0.00,meteohub,2013-07-19 13:33:00,
2013-07-19 07:36:00,54.0,51.4,29.87,North,349,0.0,0.0,91,0.00,,,0.00,meteohub,2013-07-19 13:36:00,
2013-07-19 07:42:00,54.1,51.3,29.87,North,349,0.0,0.0,90,0.00,,,0.00,meteohub,2013-07-19 13:42:00,
2013-07-19 07:48:00,54.3,51.1,29.88,North,349,0.0,2.0,89,0.00,,,0.00,meteohub,2013-07-19 13:48:00,
2013-07-19 07:54:00,54.7,51.4,29.88,North,349,2.0,2.0,89,0.00,,,0.00,meteohub,2013-07-19 13:54:00,
2013-07-19 08:00:00,54.9,51.4,29.88,North,349,0.0,3.0,88,0.00,,,0.00,meteohub,2013-07-19 14:00:00,
2013-07-19 08:06:00,55.0,51.3,29.88,North,349,0.0,3.0,87,0.00,,,0.00,meteohub,2013-07-19 14:06:00,
2013-07-19 08:12:00,55.2,51.8,29.88,North,349,0.0,3.0,88,0.00,,,0.00,meteohub,2013-07-19 14:12:00,
2013-07-19 08:19:00,55.8,52.0,29.88,North,349,3.0,3.0,87,0.00,,,0.00,meteohub,2013-07-19 14:19:00,
2013-07-19 08:25:00,55.9,52.7,29.88,North,349,1.0,1.0,89,0.00,,,0.00,meteohub,2013-07-19 14:25:00,
2013-07-19 08:31:00,56.1,52.7,29.88,North,349,0.0,3.0,88,0.00,,,0.00,meteohub,2013-07-19 14:31:00,
2013-07-19 08:37:00,56.3,52.5,29.87,North,349,0.0,3.0,87,0.00,,,0.00,meteohub,2013-07-19 14:37:00,
2013-07-19 08:43:00,56.7,52.5,29.87,North,349,0.0,2.0,86,0.00,,,0.00,meteohub,2013-07-19 14:43:00,
2013-07-19 08:49:00,57.2,53.1,29.87,North,349,0.0,2.0,86,0.00,,,0.00,meteohub,2013-07-19 14:49:00,
2013-07-19 08:55:00,58.1,53.2,29.87,North,349,0.0,2.0,84,0.00,,,0.00,meteohub,2013-07-19 14:55:00,
2013-07-19 09:01:00,58.6,53.2,29.87,North,349,1.0,2.0,82,0.00,,,0.00,meteohub,2013-07-19 15:01:00,
2013-07-19 09:07:00,59.2,52.7,29.87,North,349,0.0,3.0,79,0.00,,,0.00,meteohub,2013-07-19 15:07:00,
2013-07-19 09:13:00,59.5,53.1,29.87,North,349,2.0,3.0,79,0.00,,,0.00,meteohub,2013-07-19 15:13:00,
2013-07-19 09:19:00,60.1,53.6,29.87,North,349,4.0,4.0,79,0.00,,,0.00,meteohub,2013-07-19 15:19:00,
2013-07-19 09:25:00,59.9,52.3,29.87,North,349,2.0,5.0,76,0.00,,,0.00,meteohub,2013-07-19 15:25:00,
2013-07-19 09:31:00,60.1,53.2,29.87,North,349,4.0,5.0,78,0.00,,,0.00,meteohub,2013-07-19 15:31:00,
2013-07-19 09:37:00,60.3,52.3,29.86,North,349,0.0,5.0,75,0.00,,,0.00,meteohub,2013-07-19 15:37:00,
2013-07-19 09:43:00,60.3,52.7,29.86,North,349,1.0,5.0,76,0.00,,,0.00,meteohub,2013-07-19 15:43:00,
2013-07-19 09:49:00,60.8,53.6,29.86,North,349,0.0,5.0,77,0.00,,,0.00,meteohub,2013-07-19 15:49:00,
2013-07-19 09:55:00,61.3,54.1,29.86,North,349,2.0,3.0,77,0.00,,,0.00,meteohub,2013-07-19 15:55:00,
2013-07-19 10:01:00,61.5,53.6,29.86,North,349,0.0,4.0,75,0.00,,,0.00,meteohub,2013-07-19 16:01:00,
2013-07-19 10:07:00,62.1,53.2,29.86,North,349,0.0,4.0,73,0.00,,,0.00,meteohub,2013-07-19 16:07:00,
2013-07-19 10:13:00,63.0,53.4,29.86,North,349,2.0,4.0,71,0.00,,,0.00,meteohub,2013-07-19 16:13:00,
2013-07-19 10:19:00,63.3,53.8,29.86,North,349,0.0,5.0,71,0.00,,,0.00,meteohub,2013-07-19 16:19:00,
2013-07-19 10:25:00,63.7,54.5,29.86,NNE,25,4.0,6.0,72,0.00,,,0.00,meteohub,2013-07-19 16:25:00,
2013-07-19 10:31:00,63.9,54.7,29.85,NNE,25,4.0,8.0,72,0.00,,,0.00,meteohub,2013-07-19 16:31:00,
2013-07-19 10:37:00,63.9,54.7,29.85,NNE,28,2.0,9.0,72,0.00,,,0.00,meteohub,2013-07-19 16:37:00,
2013-07-19 10:43:00,63.9,52.7,29.85,NNE,33,6.0,9.0,67,0.00,,,0.00,meteohub,2013-07-19 16:43:00,
2013-07-19 10:49:00,64.0,53.2,29.85,NNE,31,8.0,11.0,68,0.00,,,0.00,meteohub,2013-07-19 16:49:00,
2013-07-19 10:55:00,64.2,53.8,29.85,North,0,6.0,11.0,69,0.00,,,0.00,meteohub,2013-07-19 16:55:00,
2013-07-19 11:01:00,64.8,52.3,29.85,North,10,8.0,9.0,64,0.00,,,0.00,meteohub,2013-07-19 17:01:00,
2013-07-19 11:07:00,65.1,52.2,29.85,NE,36,6.0,10.0,63,0.00,,,0.00,meteohub,2013-07-19 17:07:00,
2013-07-19 11:13:00,65.5,53.4,29.85,NNE,18,4.0,10.0,65,0.00,,,0.00,meteohub,2013-07-19 17:13:00,
2013-07-19 11:19:00,66.4,53.8,29.86,NNE,16,2.0,10.0,64,0.00,,,0.00,meteohub,2013-07-19 17:19:00,
2013-07-19 11:25:00,66.6,54.0,29.86,NNE,32,1.0,8.0,64,0.00,,,0.00,meteohub,2013-07-19 17:25:00,
2013-07-19 11:32:00,66.7,54.1,29.86,NNE,31,3.0,8.0,64,0.00,,,0.00,meteohub,2013-07-19 17:32:00,
2013-07-19 11:38:00,66.9,51.3,29.85,NNE,31,2.0,7.0,57,0.00,,,0.00,meteohub,2013-07-19 17:38:00,
2013-07-19 11:44:00,67.5,48.2,29.86,NNE,31,3.0,7.0,50,0.00,,,0.00,meteohub,2013-07-19 17:44:00,
2013-07-19 11:50:00,67.8,51.6,29.85,NNE,31,0.0,6.0,56,0.00,,,0.00,meteohub,2013-07-19 17:50:00,
2013-07-19 11:56:00,68.5,52.2,29.85,NNE,31,1.0,4.0,56,0.00,,,0.00,meteohub,2013-07-19 17:56:00,
2013-07-19 12:02:00,69.4,52.2,29.85,East,101,5.0,5.0,54,0.00,,,0.00,meteohub,2013-07-19 18:02:00,
2013-07-19 12:08:00,69.6,51.8,29.85,ESE,102,5.0,8.0,53,0.00,,,0.00,meteohub,2013-07-19 18:08:00,
2013-07-19 12:14:00,69.4,52.2,29.85,ESE,111,3.0,8.0,54,0.00,,,0.00,meteohub,2013-07-19 18:14:00,
2013-07-19 12:20:00,70.0,54.5,29.84,ESE,114,8.0,8.0,58,0.00,,,0.00,meteohub,2013-07-19 18:20:00,
2013-07-19 12:26:00,70.3,53.4,29.84,ESE,109,3.0,9.0,55,0.00,,,0.00,meteohub,2013-07-19 18:26:00,
2013-07-19 12:32:00,70.5,51.4,29.84,ESE,109,1.0,9.0,51,0.00,,,0.00,meteohub,2013-07-19 18:32:00,
2013-07-19 12:38:00,70.9,54.0,29.84,ESE,109,2.0,8.0,55,0.00,,,0.00,meteohub,2013-07-19 18:38:00,
2013-07-19 12:44:00,71.4,51.3,29.83,ESE,109,4.0,8.0,49,0.00,,,0.00,meteohub,2013-07-19 18:44:00,
2013-07-19 12:50:00,71.4,52.3,29.83,East,82,1.0,9.0,51,0.00,,,0.00,meteohub,2013-07-19 18:50:00,
2013-07-19 12:56:00,71.8,49.3,29.83,ESE,113,1.0,10.0,45,0.00,,,0.00,meteohub,2013-07-19 18:56:00,
2013-07-19 13:02:00,72.0,51.8,29.83,SE,127,9.0,10.0,49,0.00,,,0.00,meteohub,2013-07-19 19:02:00,
2013-07-19 13:08:00,72.3,52.2,29.83,SE,127,7.0,12.0,49,0.00,,,0.00,meteohub,2013-07-19 19:08:00,
2013-07-19 13:14:00,72.5,51.6,29.82,SE,126,2.0,12.0,48,0.00,,,0.00,meteohub,2013-07-19 19:14:00,
2013-07-19 13:20:00,72.9,52.5,29.82,SE,127,4.0,9.0,49,0.00,,,0.00,meteohub,2013-07-19 19:20:00,
2013-07-19 13:26:00,73.0,52.2,29.82,SE,135,7.0,9.0,48,0.00,,,0.00,meteohub,2013-07-19 19:26:00,
2013-07-19 13:32:00,73.8,51.6,29.82,SE,135,2.0,8.0,46,0.00,,,0.00,meteohub,2013-07-19 19:32:00,
2013-07-19 13:38:00,74.3,52.7,29.82,SE,146,3.0,8.0,47,0.00,,,0.00,meteohub,2013-07-19 19:38:00,
2013-07-19 13:44:00,74.1,53.2,29.82,NE,56,5.0,8.0,48,0.00,,,0.00,meteohub,2013-07-19 19:44:00,
2013-07-19 13:50:00,74.5,50.5,29.81,East,79,5.0,10.0,43,0.00,,,0.00,meteohub,2013-07-19 19:50:00,
2013-07-19 13:56:00,74.3,51.6,29.81,ESE,119,5.0,10.0,45,0.00,,,0.00,meteohub,2013-07-19 19:56:00,
2013-07-19 14:02:00,74.5,49.8,29.81,NE,39,7.0,10.0,42,0.00,,,0.00,meteohub,2013-07-19 20:02:00,
2013-07-19 14:08:00,75.0,51.6,29.81,NE,53,5.0,10.0,44,0.00,,,0.00,meteohub,2013-07-19 20:08:00,
2013-07-19 14:12:00,75.6,50.2,29.81,North,0,5.0,10.0,41,0.00,,,0.00,meteohub,2013-07-19 20:12:00,
2013-07-19 14:17:00,75.6,50.2,29.81,ESE,107,3.0,11.0,41,0.00,,,0.00,meteohub,2013-07-19 20:17:00,
2013-07-19 14:23:00,75.7,52.3,29.81,ENE,76,7.0,11.0,44,0.00,,,0.00,meteohub,2013-07-19 20:23:00,
2013-07-19 14:29:00,75.9,48.6,29.81,NE,45,4.0,11.0,38,0.00,,,0.00,meteohub,2013-07-19 20:29:00,
2013-07-19 14:35:00,74.1,52.0,29.81,South,180,12.0,14.0,46,0.00,,,0.00,meteohub,2013-07-19 20:35:00,
2013-07-19 14:41:00,72.0,50.0,29.81,WSW,251,13.0,14.0,46,0.00,,,0.00,meteohub,2013-07-19 20:41:00,
2013-07-19 14:48:00,72.1,50.7,29.81,WNW,285,9.0,16.0,47,0.00,,,0.00,meteohub,2013-07-19 20:48:00,
2013-07-19 14:54:00,73.0,49.8,29.81,West,271,7.0,19.0,44,0.00,,,0.00,meteohub,2013-07-19 20:54:00,
2013-07-19 15:00:00,72.1,49.6,29.81,NW,314,7.0,19.0,45,0.00,,,0.00,meteohub,2013-07-19 21:00:00,
2013-07-19 15:06:00,70.9,49.1,29.81,WNW,303,5.0,14.0,46,0.00,,,0.00,meteohub,2013-07-19 21:06:00,
2013-07-19 15:12:00,69.8,49.3,29.81,West,260,8.0,13.0,48,0.00,,,0.00,meteohub,2013-07-19 21:12:00,
2013-07-19 15:18:00,69.3,50.9,29.81,WNW,295,8.0,13.0,52,0.00,,,0.00,meteohub,2013-07-19 21:18:00,
2013-07-19 15:24:00,69.1,51.8,29.81,WNW,288,7.0,13.0,54,0.00,,,0.00,meteohub,2013-07-19 21:24:00,
2013-07-19 15:30:00,69.1,51.3,29.81,WNW,285,5.0,13.0,53,0.00,,,0.00,meteohub,2013-07-19 21:30:00,
2013-07-19 15:36:00,68.7,51.4,29.82,West,264,6.0,11.0,54,0.00,,,0.00,meteohub,2013-07-19 21:36:00,
2013-07-19 15:42:00,67.8,50.5,29.83,SSE,168,9.0,11.0,54,0.00,,,0.00,meteohub,2013-07-19 21:42:00,
2013-07-19 15:48:00,67.1,48.4,29.83,ENE,78,7.0,14.0,51,0.00,,,0.00,meteohub,2013-07-19 21:48:00,
2013-07-19 15:54:00,66.6,52.2,29.83,South,187,7.0,14.0,60,0.00,,,0.00,meteohub,2013-07-19 21:54:00,
2013-07-19 16:00:00,65.1,52.2,29.84,SSW,193,3.0,14.0,63,0.00,,,0.00,meteohub,2013-07-19 22:00:00,
2013-07-19 16:06:00,64.4,53.6,29.86,North,0,7.0,9.0,68,0.00,,,0.00,meteohub,2013-07-19 22:06:00,
2013-07-19 16:12:00,62.1,53.6,29.86,NNW,337,6.0,16.0,74,0.01,,,0.01,meteohub,2013-07-19 22:12:00,
2013-07-19 16:18:00,59.9,53.4,29.86,North,352,9.0,16.0,79,0.04,,,0.04,meteohub,2013-07-19 22:18:00,
2013-07-19 16:24:00,58.6,53.8,29.86,NNW,345,8.0,15.0,84,0.06,,,0.06,meteohub,2013-07-19 22:24:00,
2013-07-19 16:30:00,57.7,53.2,29.87,NNW,338,7.0,14.0,85,0.11,,,0.11,meteohub,2013-07-19 22:30:00,
2013-07-19 16:36:00,57.4,53.6,29.87,NNW,333,2.0,10.0,87,0.12,,,0.12,meteohub,2013-07-19 22:36:00,
2013-07-19 16:42:00,57.2,53.4,29.87,NNW,333,5.0,10.0,87,0.16,,,0.16,meteohub,2013-07-19 22:42:00,
2013-07-19 16:48:00,57.4,53.8,29.87,NNW,328,5.0,7.0,88,0.18,,,0.18,meteohub,2013-07-19 22:48:00,
2013-07-19 16:54:00,57.0,53.8,29.86,NW,304,4.0,6.0,89,0.20,,,0.20,meteohub,2013-07-19 22:54:00,
2013-07-19 17:00:00,57.0,54.1,29.86,WSW,239,5.0,9.0,90,0.24,,,0.24,meteohub,2013-07-19 23:00:00,
2013-07-19 17:06:00,57.0,54.5,29.86,WSW,242,6.0,9.0,91,0.25,,,0.25,meteohub,2013-07-19 23:06:00,
2013-07-19 17:12:00,56.8,54.3,29.86,WSW,251,9.0,9.0,91,0.23,,,0.25,meteohub,2013-07-19 23:12:00,
2013-07-19 17:18:00,56.8,54.3,29.85,WSW,247,7.0,10.0,91,0.22,,,0.26,meteohub,2013-07-19 23:18:00,
2013-07-19 17:24:00,56.8,54.5,29.86,WSW,247,5.0,10.0,92,0.19,,,0.26,meteohub,2013-07-19 23:24:00,
2013-07-19 17:30:00,57.0,54.7,29.86,WSW,247,3.0,10.0,92,0.16,,,0.27,meteohub,2013-07-19 23:30:00,
2013-07-19 17:36:00,57.2,54.9,29.86,WSW,247,3.0,7.0,92,0.15,,,0.29,meteohub,2013-07-19 23:36:00,
2013-07-19 17:42:00,57.4,55.0,29.86,WSW,247,4.0,5.0,92,0.14,,,0.30,meteohub,2013-07-19 23:42:00,
2013-07-19 17:48:00,57.9,55.6,29.86,WSW,247,1.0,6.0,92,0.13,,,0.31,meteohub,2013-07-19 23:48:00,
2013-07-19 17:54:00,58.3,55.6,29.86,WSW,247,3.0,6.0,91,0.10,,,0.31,meteohub,2013-07-19 23:54:00,
2013-07-19 18:00:00,58.5,55.6,29.86,WSW,247,4.0,5.0,90,0.07,,,0.31,meteohub,2013-07-20 00:00:00,
2013-07-19 18:06:00,58.5,55.6,29.86,SW,215,2.0,5.0,90,0.06,,,0.31,meteohub,2013-07-20 00:06:00,
2013-07-19 18:12:00,58.5,55.6,29.86,SW,215,4.0,5.0,90,0.05,,,0.31,meteohub,2013-07-20 00:12:00,
2013-07-19 18:19:00,58.1,55.2,29.86,SW,215,1.0,5.0,90,0.05,,,0.31,meteohub,2013-07-20 00:19:00,
2013-07-19 18:25:00,57.9,55.2,29.86,SW,215,3.0,5.0,91,0.04,,,0.31,meteohub,2013-07-20 00:25:00,
2013-07-19 18:31:00,57.7,54.9,29.86,SW,215,3.0,5.0,90,0.02,,,0.31,meteohub,2013-07-20 00:31:00,
2013-07-19 18:37:00,57.7,54.9,29.86,SW,215,4.0,5.0,90,0.01,,,0.31,meteohub,2013-07-20 00:37:00,
2013-07-19 18:43:00,57.6,55.0,29.86,SW,215,3.0,5.0,91,0.00,,,0.31,meteohub,2013-07-20 00:43:00,
2013-07-19 18:49:00,57.0,54.7,29.86,SW,215,3.0,5.0,92,0.00,,,0.31,meteohub,2013-07-20 00:49:00,
2013-07-19 18:55:00,57.0,54.7,29.86,SW,215,0.0,5.0,92,0.00,,,0.31,meteohub,2013-07-20 00:55:00,
2013-07-19 19:01:00,56.8,54.5,29.86,SW,215,2.0,4.0,92,0.00,,,0.31,meteohub,2013-07-20 01:01:00,
2013-07-19 19:07:00,56.8,54.9,29.86,SW,215,0.0,4.0,93,0.00,,,0.31,meteohub,2013-07-20 01:07:00,
2013-07-19 19:13:00,56.7,54.3,29.86,SW,215,0.0,4.0,92,0.00,,,0.31,meteohub,2013-07-20 01:13:00,
2013-07-19 19:19:00,56.7,54.3,29.86,SW,215,1.0,4.0,92,0.00,,,0.31,meteohub,2013-07-20 01:19:00,
2013-07-19 19:25:00,56.5,54.0,29.86,SW,215,0.0,4.0,91,0.00,,,0.31,meteohub,2013-07-20 01:25:00,
2013-07-19 19:31:00,56.5,54.0,29.86,SW,215,0.0,2.0,91,0.00,,,0.31,meteohub,2013-07-20 01:31:00,
2013-07-19 19:37:00,56.5,54.0,29.86,SW,215,0.0,0.0,91,0.00,,,0.31,meteohub,2013-07-20 01:37:00,
2013-07-19 19:43:00,56.7,54.1,29.86,SW,215,0.0,0.0,91,0.00,,,0.31,meteohub,2013-07-20 01:43:00,
2013-07-19 19:49:00,56.8,54.5,29.86,SW,215,0.0,0.0,92,0.00,,,0.31,meteohub,2013-07-20 01:49:00,
2013-07-19 19:55:00,56.8,54.0,29.86,SW,215,0.0,1.0,90,0.00,,,0.31,meteohub,2013-07-20 01:55:00,
2013-07-19 20:01:00,57.0,53.8,29.86,SW,215,0.0,1.0,89,0.00,,,0.31,meteohub,2013-07-20 02:01:00,
2013-07-19 20:07:00,57.0,54.5,29.86,SW,215,0.0,1.0,91,0.00,,,0.31,meteohub,2013-07-20 02:07:00,
2013-07-19 20:13:00,57.0,54.1,29.87,SW,215,2.0,2.0,90,0.00,,,0.31,meteohub,2013-07-20 02:13:00,
2013-07-19 20:19:00,57.2,54.7,29.87,SW,215,0.0,2.0,91,0.00,,,0.31,meteohub,2013-07-20 02:19:00,
2013-07-19 20:25:00,57.0,54.5,29.87,SW,215,0.0,2.0,91,0.00,,,0.31,meteohub,2013-07-20 02:25:00,
2013-07-19 20:31:00,56.8,54.5,29.87,SW,215,0.0,1.0,92,0.00,,,0.31,meteohub,2013-07-20 02:31:00,
2013-07-19 20:37:00,56.8,54.9,29.87,SW,215,0.0,1.0,93,0.00,,,0.31,meteohub,2013-07-20 02:37:00,
2013-07-19 20:43:00,56.7,54.7,29.87,SW,215,0.0,1.0,93,0.00,,,0.31,meteohub,2013-07-20 02:43:00,
2013-07-19 20:49:00,56.5,54.5,29.87,SW,215,0.0,0.0,93,0.00,,,0.31,meteohub,2013-07-20 02:49:00,
2013-07-19 20:55:00,56.5,54.5,29.87,SW,215,0.0,0.0,93,0.00,,,0.31,meteohub,2013-07-20 02:55:00,
2013-07-19 21:01:00,56.3,54.3,29.86,SW,215,0.0,1.0,93,0.00,,,0.31,meteohub,2013-07-20 03:01:00,
2013-07-19 21:07:00,56.1,54.1,29.87,SW,215,2.0,3.0,93,0.00,,,0.31,meteohub,2013-07-20 03:07:00,
2013-07-19 21:13:00,55.9,53.6,29.88,SW,215,3.0,3.0,92,0.00,,,0.31,meteohub,2013-07-20 03:13:00,
2013-07-19 21:19:00,55.8,53.4,29.88,SW,215,3.0,5.0,92,0.00,,,0.31,meteohub,2013-07-20 03:19:00,
2013-07-19 21:25:00,55.6,53.1,29.88,SW,215,2.0,5.0,91,0.00,,,0.31,meteohub,2013-07-20 03:25:00,
2013-07-19 21:31:00,55.6,53.1,29.88,SW,215,1.0,5.0,91,0.00,,,0.31,meteohub,2013-07-20 03:31:00,
2013-07-19 21:37:00,55.4,52.9,29.88,SW,215,4.0,4.0,91,0.00,,,0.31,meteohub,2013-07-20 03:37:00,
2013-07-19 21:44:00,55.4,52.9,29.89,SW,215,4.0,4.0,91,0.00,,,0.31,meteohub,2013-07-20 03:44:00,
2013-07-19 21:50:00,55.6,53.1,29.90,SW,215,4.0,5.0,91,0.00,,,0.31,meteohub,2013-07-20 03:50:00,
2013-07-19 21:56:00,55.6,53.1,29.90,NNE,18,4.0,9.0,91,0.00,,,0.31,meteohub,2013-07-20 03:56:00,
2013-07-19 22:02:00,55.8,53.2,29.89,NNE,18,2.0,9.0,91,0.00,,,0.31,meteohub,2013-07-20 04:02:00,
2013-07-19 22:05:00,55.8,53.4,29.89,NNW,338,4.0,9.0,92,0.00,,,0.31,meteohub,2013-07-20 04:05:00,
2013-07-19 22:08:00,55.8,53.4,29.88,NW,317,3.0,9.0,92,0.00,,,0.31,meteohub,2013-07-20 04:08:00,
2013-07-19 22:14:00,55.6,53.2,29.89,NW,311,4.0,5.0,92,0.00,,,0.31,meteohub,2013-07-20 04:14:00,
2013-07-19 22:20:00,55.4,53.1,29.88,West,273,7.0,7.0,92,0.00,,,0.31,meteohub,2013-07-20 04:20:00,
2013-07-19 22:26:00,55.4,53.1,29.87,WSW,249,4.0,9.0,92,0.00,,,0.31,meteohub,2013-07-20 04:26:00,
2013-07-19 22:32:00,55.6,53.2,29.87,WSW,249,8.0,9.0,92,0.00,,,0.31,meteohub,2013-07-20 04:32:00,
2013-07-19 22:38:00,55.8,52.9,29.87,WSW,251,7.0,9.0,90,0.00,,,0.31,meteohub,2013-07-20 04:38:00,
2013-07-19 22:44:00,55.9,53.1,29.87,West,259,6.0,9.0,90,0.00,,,0.31,meteohub,2013-07-20 04:44:00,
2013-07-19 22:50:00,55.9,53.1,29.86,West,273,7.0,10.0,90,0.00,,,0.31,meteohub,2013-07-20 04:50:00,
2013-07-19 22:56:00,55.8,52.9,29.85,West,275,5.0,11.0,90,0.00,,,0.31,meteohub,2013-07-20 04:56:00,
2013-07-19 23:02:00,55.8,52.9,29.85,West,275,5.0,11.0,90,0.00,,,0.31,meteohub,2013-07-20 05:02:00,
2013-07-19 23:08:00,55.9,52.7,29.86,West,277,5.0,10.0,89,0.00,,,0.31,meteohub,2013-07-20 05:08:00,
2013-07-19 23:14:00,55.9,52.7,29.86,West,277,2.0,10.0,89,0.00,,,0.31,meteohub,2013-07-20 05:14:00,
2013-07-19 23:20:00,55.8,52.3,29.86,West,277,0.0,10.0,88,0.00,,,0.31,meteohub,2013-07-20 05:20:00,
2013-07-19 23:26:00,55.8,52.3,29.87,West,277,0.0,6.0,88,0.00,,,0.31,meteohub,2013-07-20 05:26:00,
2013-07-19 23:32:00,55.6,52.2,29.87,West,277,0.0,6.0,88,0.00,,,0.31,meteohub,2013-07-20 05:32:00,
2013-07-19 23:38:00,55.6,53.1,29.87,NNW,332,5.0,6.0,91,0.00,,,0.31,meteohub,2013-07-20 05:38:00,
2013-07-19 23:44:00,55.2,52.9,29.87,NNW,333,6.0,8.0,92,0.00,,,0.31,meteohub,2013-07-20 05:44:00,
2013-07-19 23:50:00,55.0,53.1,29.87,NNW,336,1.0,8.0,93,0.00,,,0.31,meteohub,2013-07-20 05:50:00,
2013-07-19 23:56:00,54.9,52.9,29.87,NNW,336,0.0,8.0,93,0.00,,,0.31,meteohub,2013-07-20 05:56:00,